Time;durP1;ratioP1;P1;durP2;ratioP2;P2;SDS_P1;SDS_P2;PMS_P1;PMS_P2;Temp;Humidity;BMP_temperature;BMP_pressure;BME280_temperature;BME280_humidity;BME280_pressure;Samples;Min_cycle;Max_cycle;Signal;HPM_P1;HPM_P2
2022/08/16 00:02:11;;;;;;;2.63;1.53;;;17.80;98.00;;;;;;5071251;28;20946;-68
2022/08/16 00:04:40;;;;;;;1.90;1.77;;;17.80;98.00;;;;;;5071338;28;20992;-69
2022/08/16 00:07:07;;;;;;;1.70;1.50;;;17.80;98.00;;;;;;5053409;28;21116;-69
2022/08/16 00:09:34;;;;;;;1.97;1.73;;;17.70;98.00;;;;;;5071234;28;20449;-69
2022/08/16 00:12:01;;;;;;;2.00;1.83;;;17.70;98.00;;;;;;5071257;28;20484;-69
2022/08/16 00:14:32;;;;;;;2.90;1.60;;;17.80;98.00;;;;;;5071135;28;20460;-69
2022/08/16 00:17:00;;;;;;;2.57;1.60;;;17.90;98.00;;;;;;5071186;28;20522;-68
2022/08/16 00:19:29;;;;;;;2.30;1.80;;;18.00;98.00;;;;;;5070607;28;20456;-69
2022/08/16 00:21:59;;;;;;;2.70;1.80;;;18.00;98.00;;;;;;5071203;28;20457;-69
2022/08/16 00:24:27;;;;;;;2.87;1.77;;;18.20;98.00;;;;;;5071329;28;20460;-68
2022/08/16 00:26:55;;;;;;;2.60;1.70;;;18.10;98.00;;;;;;5071080;28;20457;-68
2022/08/16 00:29:22;;;;;;;2.10;1.80;;;18.10;98.00;;;;;;5053380;28;20465;-68
2022/08/16 00:31:52;;;;;;;3.83;2.13;;;18.10;98.00;;;;;;5070869;28;20845;-68
2022/08/16 00:34:21;;;;;;;1.60;1.57;;;18.00;98.00;;;;;;5070908;28;20815;-68
2022/08/16 00:36:50;;;;;;;3.27;2.10;;;17.90;98.00;;;;;;5071051;28;21024;-68
2022/08/16 00:39:19;;;;;;;3.20;2.00;;;18.00;98.00;;;;;;5070844;28;20452;-68
2022/08/16 00:41:50;;;;;;;2.70;1.80;;;17.80;98.00;;;;;;5070990;28;20947;-68
2022/08/16 00:44:20;;;;;;;2.23;2.03;;;17.70;98.00;;;;;;5070887;28;20624;-68
2022/08/16 00:46:51;;;;;;;2.70;2.13;;;17.70;98.00;;;;;;5070844;28;20951;-68
2022/08/16 00:49:18;;;;;;;2.23;1.87;;;17.50;98.00;;;;;;5070740;28;20720;-68
2022/08/16 00:51:46;;;;;;;4.13;1.97;;;17.40;98.00;;;;;;5070642;28;20480;-68
2022/08/16 00:54:13;;;;;;;2.90;1.83;;;17.30;98.00;;;;;;5070690;28;20448;-68
2022/08/16 00:56:45;;;;;;;3.30;1.93;;;17.30;98.00;;;;;;5070533;28;20791;-68
2022/08/16 00:59:14;;;;;;;1.50;1.40;;;17.40;98.00;;;;;;5070744;28;20467;-68
2022/08/16 01:01:43;;;;;;;3.63;2.30;;;17.30;98.00;;;;;;5071005;28;20445;-68
2022/08/16 01:04:11;;;;;;;3.93;2.03;;;17.40;98.00;;;;;;5070685;28;20453;-68
2022/08/16 01:06:38;;;;;;;3.73;2.07;;;17.40;98.00;;;;;;5071082;28;20461;-68
2022/08/16 01:09:07;;;;;;;3.20;1.90;;;17.40;98.00;;;;;;5070517;28;20473;-68
2022/08/16 01:11:36;;;;;;;1.83;1.50;;;17.60;98.00;;;;;;5070812;28;20480;-68
2022/08/16 01:14:09;;;;;;;1.83;1.50;;;17.50;98.00;;;;;;5070642;28;20890;-68
2022/08/16 01:16:37;;;;;;;8.00;2.03;;;17.40;98.00;;;;;;5070866;28;20461;-68
2022/08/16 01:19:14;;;;;;;1.80;1.60;;;17.40;98.00;;;;;;5070556;28;20453;-68
2022/08/16 01:21:50;;;;;;;3.00;2.00;;;17.30;98.00;;;;;;5070845;28;20485;-68
2022/08/16 01:24:26;;;;;;;2.70;1.77;;;17.30;98.00;;;;;;5071696;28;20850;-68
2022/08/16 01:26:59;;;;;;;1.80;1.60;;;17.40;98.00;;;;;;5071328;28;20488;-68
2022/08/16 01:29:32;;;;;;;1.60;1.43;;;17.50;98.00;;;;;;5072007;28;20448;-68
2022/08/16 01:31:59;;;;;;;2.10;1.77;;;17.60;98.00;;;;;;5073235;28;20516;-68
2022/08/16 01:34:26;;;;;;;2.73;1.70;;;17.60;98.00;;;;;;5074172;28;20453;-68
2022/08/16 01:37:02;;;;;;;3.73;2.07;;;17.50;98.00;;;;;;5073623;28;21025;-68
2022/08/16 01:39:32;;;;;;;2.20;1.47;;;17.40;98.00;;;;;;5074756;28;20502;-68
2022/08/16 01:41:59;;;;;;;2.60;1.87;;;17.40;98.00;;;;;;5074961;28;20457;-68
2022/08/16 01:44:27;;;;;;;2.03;1.60;;;17.50;98.00;;;;;;5074887;28;20923;-68
2022/08/16 01:46:56;;;;;;;2.17;1.73;;;17.40;98.00;;;;;;5074848;28;20514;-68
2022/08/16 01:49:28;;;;;;;2.50;1.83;;;17.50;98.00;;;;;;5074026;28;20535;-68
2022/08/16 01:51:59;;;;;;;2.40;1.67;;;17.60;98.00;;;;;;5073678;28;20986;-68
2022/08/16 01:54:26;;;;;;;2.20;1.80;;;17.60;98.00;;;;;;5073728;28;20826;-68
2022/08/16 01:56:56;;;;;;;2.23;1.90;;;17.50;98.00;;;;;;5073755;28;20906;-68
2022/08/16 01:59:23;;;;;;;2.10;1.70;;;17.50;98.00;;;;;;5073503;28;20456;-68
2022/08/16 02:01:52;;;;;;;1.93;1.47;;;17.60;98.00;;;;;;5073537;28;20457;-68
2022/08/16 02:04:21;;;;;;;2.00;1.67;;;17.50;98.00;;;;;;5073630;28;20461;-68
2022/08/16 02:06:48;;;;;;;2.73;2.00;;;17.40;98.00;;;;;;5073436;28;20943;-68
2022/08/16 02:09:16;;;;;;;2.47;1.80;;;17.40;98.00;;;;;;5073104;28;20460;-68
2022/08/16 02:11:46;;;;;;;3.17;2.13;;;17.30;98.00;;;;;;5073393;28;20819;-68
2022/08/16 02:14:16;;;;;;;1.97;1.77;;;17.20;98.00;;;;;;5073392;28;20514;-68
2022/08/16 02:16:43;;;;;;;2.90;2.10;;;17.00;98.00;;;;;;5073272;28;20453;-68
2022/08/16 02:19:11;;;;;;;2.13;2.00;;;16.90;98.00;;;;;;5073161;28;20812;-68
2022/08/16 02:21:38;;;;;;;2.73;1.83;;;17.00;98.00;;;;;;5073505;28;20460;-68
2022/08/16 02:24:06;;;;;;;2.43;1.60;;;17.00;98.00;;;;;;5073462;28;20460;-68
2022/08/16 02:26:33;;;;;;;2.90;2.20;;;16.90;98.00;;;;;;5073355;28;20453;-68
2022/08/16 02:29:01;;;;;;;5.83;1.63;;;16.90;98.00;;;;;;5073056;28;20456;-68
2022/08/16 02:31:30;;;;;;;3.20;2.00;;;16.90;98.00;;;;;;5072482;28;20481;-68
2022/08/16 02:33:57;;;;;;;2.67;1.97;;;17.00;98.00;;;;;;5073007;28;20453;-68
2022/08/16 02:36:24;;;;;;;1.97;1.80;;;17.10;98.00;;;;;;5072962;28;20440;-68
2022/08/16 02:38:51;;;;;;;2.40;1.73;;;17.10;98.00;;;;;;5072608;28;20464;-68
2022/08/16 02:41:19;;;;;;;2.23;1.70;;;17.00;98.00;;;;;;5072762;28;20465;-68
2022/08/16 02:43:46;;;;;;;2.43;1.77;;;17.00;98.00;;;;;;5072121;28;20841;-68
2022/08/16 02:46:13;;;;;;;2.33;1.80;;;16.80;98.00;;;;;;5072878;28;20445;-68
2022/08/16 02:48:42;;;;;;;2.10;1.50;;;16.70;98.00;;;;;;5072562;28;20456;-68
2022/08/16 02:51:10;;;;;;;2.70;1.73;;;16.80;98.00;;;;;;5072406;28;20859;-68
2022/08/16 02:53:39;;;;;;;2.13;1.83;;;16.80;98.00;;;;;;5072469;28;20457;-68
2022/08/16 02:56:09;;;;;;;2.90;1.90;;;16.80;98.00;;;;;;5072251;28;20460;-68
2022/08/16 02:58:37;;;;;;;3.03;1.70;;;16.90;98.00;;;;;;5054934;28;20558;-68
2022/08/16 03:01:05;;;;;;;1.70;1.50;;;16.90;98.00;;;;;;5072212;28;20452;-68
2022/08/16 03:03:33;;;;;;;3.20;1.37;;;16.80;98.00;;;;;;5072166;28;20449;-68
2022/08/16 03:06:01;;;;;;;2.57;2.00;;;16.80;98.00;;;;;;5072205;28;20511;-68
2022/08/16 03:08:29;;;;;;;3.37;2.20;;;16.90;98.00;;;;;;5071914;28;20456;-68
2022/08/16 03:10:58;;;;;;;2.43;1.70;;;17.10;98.00;;;;;;5071920;28;20452;-68
2022/08/16 03:13:26;;;;;;;2.40;1.87;;;17.30;98.00;;;;;;5071953;28;20602;-68
2022/08/16 03:15:53;;;;;;;2.07;1.60;;;17.40;98.00;;;;;;5071972;28;20484;-68
2022/08/16 03:18:21;;;;;;;10.80;2.30;;;17.30;98.00;;;;;;5054298;28;20461;-68
2022/08/16 03:20:50;;;;;;;2.67;2.27;;;17.10;98.00;;;;;;5072506;28;20456;-68
2022/08/16 03:23:18;;;;;;;2.37;1.70;;;17.10;98.00;;;;;;5071889;28;20458;-68
2022/08/16 03:25:47;;;;;;;2.60;1.80;;;17.00;98.00;;;;;;5072139;28;20981;-68
2022/08/16 03:28:14;;;;;;;2.57;2.00;;;16.90;98.00;;;;;;5071978;28;20460;-68
2022/08/16 03:30:42;;;;;;;2.73;1.87;;;16.90;98.00;;;;;;5071914;28;21026;-68
2022/08/16 03:33:09;;;;;;;3.30;1.90;;;17.10;98.00;;;;;;5071869;28;20492;-68
2022/08/16 03:35:38;;;;;;;2.53;2.00;;;17.10;98.00;;;;;;5071787;28;20839;-68
2022/08/16 03:38:08;;;;;;;2.50;1.80;;;17.00;98.00;;;;;;5071818;28;20454;-68
2022/08/16 03:40:37;;;;;;;2.30;1.60;;;17.10;98.00;;;;;;5071850;28;20448;-68
2022/08/16 03:43:08;;;;;;;3.20;2.00;;;17.00;98.00;;;;;;5071529;28;20460;-68
2022/08/16 03:45:35;;;;;;;3.70;2.00;;;16.80;98.00;;;;;;5071526;28;20469;-68
2022/08/16 03:48:04;;;;;;;3.57;2.47;;;16.70;98.00;;;;;;5071377;28;20476;-68
2022/08/16 03:50:31;;;;;;;2.00;1.60;;;16.90;98.00;;;;;;5071349;28;20457;-67
2022/08/16 03:52:59;;;;;;;3.23;2.33;;;17.10;98.00;;;;;;5071253;28;20484;-68
2022/08/16 03:55:26;;;;;;;2.20;1.73;;;17.00;98.00;;;;;;5070416;28;20448;-68
2022/08/16 03:57:55;;;;;;;2.13;1.70;;;16.90;98.00;;;;;;5070702;28;21005;-68
2022/08/16 04:00:26;;;;;;;2.40;1.80;;;16.70;98.00;;;;;;5071357;28;20449;-68
2022/08/16 04:02:56;;;;;;;3.07;1.70;;;16.60;98.00;;;;;;5071274;28;20870;-68
2022/08/16 04:05:24;;;;;;;2.00;1.50;;;16.40;98.00;;;;;;5071382;28;20467;-68
2022/08/16 04:07:51;;;;;;;2.83;2.03;;;16.20;98.00;;;;;;5053080;28;20471;-68
2022/08/16 04:10:22;;;;;;;3.43;1.90;;;16.40;98.00;;;;;;5071200;28;20453;-68
2022/08/16 04:12:49;;;;;;;2.90;1.90;;;16.40;98.00;;;;;;5071102;28;20908;-68
2022/08/16 04:15:18;;;;;;;2.97;2.00;;;16.30;98.00;;;;;;5071233;28;20818;-68
2022/08/16 04:17:45;;;;;;;3.10;2.20;;;16.10;98.00;;;;;;5071146;28;20453;-68
2022/08/16 04:20:13;;;;;;;2.63;1.90;;;16.10;98.00;;;;;;5071206;28;20451;-68
2022/08/16 04:22:43;;;;;;;2.40;1.93;;;16.10;98.00;;;;;;5071059;28;20463;-68
2022/08/16 04:25:10;;;;;;;3.53;1.67;;;16.10;98.00;;;;;;5071372;28;20487;-68
2022/08/16 04:27:38;;;;;;;3.27;2.40;;;16.30;98.00;;;;;;5071380;28;20455;-68
2022/08/16 04:30:08;;;;;;;3.87;2.70;;;16.50;98.00;;;;;;5071337;28;20465;-68
2022/08/16 04:32:37;;;;;;;2.00;1.50;;;16.50;98.00;;;;;;5071089;28;20485;-68
2022/08/16 04:35:05;;;;;;;2.80;1.90;;;16.50;98.00;;;;;;5071167;28;20535;-68
2022/08/16 04:37:33;;;;;;;3.10;1.90;;;16.50;98.00;;;;;;5070859;28;20470;-68
2022/08/16 04:40:00;;;;;;;2.30;1.73;;;16.50;98.00;;;;;;5071048;28;20463;-68
2022/08/16 04:42:27;;;;;;;2.60;1.90;;;16.40;98.00;;;;;;5070870;28;20460;-68
2022/08/16 04:44:56;;;;;;;3.60;2.53;;;16.40;98.00;;;;;;5070772;28;20468;-68
2022/08/16 04:47:25;;;;;;;1.97;1.70;;;16.40;98.00;;;;;;5070764;28;20453;-68
2022/08/16 04:49:54;;;;;;;3.20;2.37;;;16.30;98.00;;;;;;5070722;28;20461;-68
2022/08/16 04:52:22;;;;;;;2.17;1.63;;;16.40;98.00;;;;;;5070559;28;20476;-68
2022/08/16 04:54:49;;;;;;;2.80;1.93;;;16.40;98.00;;;;;;5070627;28;20453;-68
2022/08/16 04:57:16;;;;;;;2.70;1.83;;;16.40;98.00;;;;;;5070687;28;20992;-68
2022/08/16 04:59:43;;;;;;;2.50;1.73;;;16.40;98.00;;;;;;5070812;28;20865;-68
2022/08/16 05:02:12;;;;;;;2.73;2.00;;;16.40;98.00;;;;;;5070711;28;20634;-68
2022/08/16 05:04:39;;;;;;;3.50;2.10;;;16.40;98.00;;;;;;5070488;28;20456;-68
2022/08/16 05:07:10;;;;;;;3.40;1.90;;;16.30;98.00;;;;;;5054743;28;20862;-68
2022/08/16 05:09:37;;;;;;;3.10;2.07;;;16.30;98.00;;;;;;5074275;28;20722;-68
2022/08/16 05:12:05;;;;;;;1.90;1.67;;;16.30;98.00;;;;;;5056795;28;20491;-68
2022/08/16 05:14:32;;;;;;;1.87;1.57;;;16.40;98.00;;;;;;5074274;28;20464;-68
2022/08/16 05:16:59;;;;;;;2.17;1.87;;;16.50;98.00;;;;;;5074478;28;20461;-68
2022/08/16 05:19:27;;;;;;;2.83;2.27;;;16.50;98.00;;;;;;5074246;28;20518;-68
2022/08/16 05:21:54;;;;;;;3.70;2.37;;;16.60;98.00;;;;;;5074137;28;20452;-68
2022/08/16 05:24:23;;;;;;;2.70;1.93;;;16.90;98.00;;;;;;5074531;28;20479;-68
2022/08/16 05:26:50;;;;;;;2.33;1.80;;;16.90;98.00;;;;;;5074544;28;20453;-68
2022/08/16 05:29:17;;;;;;;4.50;2.30;;;17.00;98.00;;;;;;5074349;28;20483;-68
2022/08/16 05:31:48;;;;;;;2.30;1.93;;;17.10;98.00;;;;;;5073930;28;20483;-68
2022/08/16 05:34:15;;;;;;;2.17;1.60;;;17.20;98.00;;;;;;5073734;28;20506;-68
2022/08/16 05:36:42;;;;;;;3.40;2.37;;;17.30;98.00;;;;;;5073978;28;20510;-68
2022/08/16 05:39:09;;;;;;;2.33;1.70;;;17.50;98.00;;;;;;5073799;28;20457;-68
2022/08/16 05:41:38;;;;;;;2.50;1.60;;;17.70;98.00;;;;;;5073884;28;20452;-68
2022/08/16 05:44:05;;;;;;;4.13;2.43;;;17.90;98.00;;;;;;5073429;28;20452;-68
2022/08/16 05:46:33;;;;;;;3.20;2.27;;;17.90;98.00;;;;;;5074125;28;20782;-68
2022/08/16 05:49:01;;;;;;;3.47;2.53;;;18.00;98.00;;;;;;5072322;28;20457;-68
2022/08/16 05:51:28;;;;;;;2.43;1.97;;;18.10;98.00;;;;;;5073575;28;20818;-68
2022/08/16 05:53:55;;;;;;;2.20;1.77;;;18.20;98.00;;;;;;5073670;28;20471;-66
2022/08/16 05:56:22;;;;;;;3.07;2.43;;;18.20;98.00;;;;;;5073085;28;20453;-67
2022/08/16 05:58:50;;;;;;;3.33;2.33;;;18.10;98.00;;;;;;5073508;28;20484;-67
2022/08/16 06:01:17;;;;;;;2.17;1.70;;;17.90;98.00;;;;;;5055851;28;20456;-67
2022/08/16 06:03:46;;;;;;;2.73;2.00;;;17.90;98.00;;;;;;5073405;28;20464;-67
2022/08/16 06:06:14;;;;;;;3.00;2.20;;;17.80;98.00;;;;;;5073548;28;20488;-67
2022/08/16 06:08:41;;;;;;;2.20;1.97;;;17.60;98.00;;;;;;5073275;28;20462;-66
2022/08/16 06:11:09;;;;;;;1.73;1.60;;;17.60;98.00;;;;;;5073660;28;20455;-67
2022/08/16 06:13:37;;;;;;;3.50;2.17;;;17.60;98.00;;;;;;5074165;28;20527;-67
2022/08/16 06:16:09;;;;;;;2.47;1.93;;;17.80;98.00;;;;;;5074114;28;20452;-66
2022/08/16 06:18:36;;;;;;;2.57;1.93;;;18.00;98.00;;;;;;5073136;28;20461;-67
2022/08/16 06:21:03;;;;;;;2.97;2.13;;;18.10;98.00;;;;;;5074115;28;20460;-67
2022/08/16 06:23:30;;;;;;;3.60;2.23;;;18.20;98.00;;;;;;5073737;28;20464;-67
2022/08/16 06:25:57;;;;;;;3.30;2.50;;;18.30;98.00;;;;;;5073923;28;20452;-66
2022/08/16 06:28:24;;;;;;;3.30;2.00;;;18.40;98.00;;;;;;5074041;28;20461;-67
2022/08/16 06:30:51;;;;;;;4.10;2.70;;;18.60;98.00;;;;;;5073175;28;20449;-67
2022/08/16 06:33:20;;;;;;;2.90;2.23;;;18.60;98.00;;;;;;5073534;28;20991;-67
2022/08/16 06:35:48;;;;;;;2.57;2.00;;;18.70;98.00;;;;;;5073376;28;20445;-66
2022/08/16 06:38:15;;;;;;;4.43;2.50;;;18.80;98.00;;;;;;5073164;28;20453;-67
2022/08/16 06:40:42;;;;;;;3.67;2.20;;;18.80;98.00;;;;;;5073319;28;20459;-67
2022/08/16 06:43:13;;;;;;;3.27;2.53;;;18.80;98.00;;;;;;5055605;28;20549;-67
2022/08/16 06:45:41;;;;;;;6.17;2.50;;;18.70;98.00;;;;;;5073511;28;20548;-66
2022/08/16 06:48:09;;;;;;;3.63;2.30;;;18.80;98.00;;;;;;5073027;28;20464;-67
2022/08/16 06:50:38;;;;;;;2.87;2.10;;;18.90;98.00;;;;;;5072741;28;20453;-68
2022/08/16 06:53:06;;;;;;;2.40;2.10;;;19.10;98.00;;;;;;5055249;28;20484;-67
2022/08/16 06:55:35;;;;;;;2.90;2.20;;;19.10;98.00;;;;;;5072880;28;20437;-67
2022/08/16 06:58:02;;;;;;;3.00;2.33;;;19.30;98.00;;;;;;5068832;28;20843;-67
2022/08/16 07:00:29;;;;;;;2.53;2.13;;;19.40;98.00;;;;;;5070565;28;20510;-67
2022/08/16 07:02:57;;;;;;;3.33;2.20;;;19.30;98.00;;;;;;5070109;28;20485;-67
2022/08/16 07:05:25;;;;;;;3.73;2.40;;;19.50;98.00;;;;;;5070174;28;20449;-67
2022/08/16 07:07:53;;;;;;;3.67;2.20;;;19.60;98.00;;;;;;5069415;28;20467;-67
2022/08/16 07:10:20;;;;;;;3.50;2.27;;;19.70;98.00;;;;;;5069688;28;20464;-67
2022/08/16 07:12:49;;;;;;;2.60;1.87;;;19.70;98.00;;;;;;5051509;28;20487;-67
2022/08/16 07:15:16;;;;;;;2.27;2.10;;;19.70;98.00;;;;;;5069699;28;20457;-67
2022/08/16 07:17:44;;;;;;;7.03;2.40;;;19.90;98.00;;;;;;5069150;28;20459;-67
2022/08/16 07:20:13;;;;;;;3.10;2.33;;;19.90;98.00;;;;;;5069076;28;20737;-67
2022/08/16 07:22:41;;;;;;;3.20;2.30;;;20.00;98.00;;;;;;5069409;28;20464;-67
2022/08/16 07:25:12;;;;;;;3.43;2.30;;;20.10;98.00;;;;;;5069080;28;20452;-68
2022/08/16 07:27:40;;;;;;;2.67;2.20;;;20.20;98.00;;;;;;5069501;28;20506;-68
2022/08/16 07:30:12;;;;;;;3.93;2.67;;;20.20;98.00;;;;;;5051396;28;20844;-67
2022/08/16 07:32:40;;;;;;;3.90;2.30;;;20.30;98.00;;;;;;5069007;28;20527;-67
2022/08/16 07:35:07;;;;;;;4.40;2.63;;;20.20;98.00;;;;;;5068779;28;20457;-67
2022/08/16 07:37:35;;;;;;;4.03;2.10;;;20.40;98.00;;;;;;5068904;28;20805;-68
2022/08/16 07:40:02;;;;;;;3.10;2.57;;;20.50;98.00;;;;;;5068873;28;20453;-67
2022/08/16 07:42:30;;;;;;;3.60;2.37;;;20.50;98.00;;;;;;5068988;28;20460;-68
2022/08/16 07:44:57;;;;;;;5.40;3.10;;;20.60;98.00;;;;;;5068888;28;20847;-68
2022/08/16 07:47:25;;;;;;;3.60;2.47;;;20.70;98.00;;;;;;5068538;28;20517;-67
2022/08/16 07:49:53;;;;;;;3.87;2.43;;;21.00;98.00;;;;;;5066935;28;20555;-69
2022/08/16 07:52:20;;;;;;;3.00;2.40;;;21.00;98.00;;;;;;5068168;28;20526;-69
2022/08/16 07:54:47;;;;;;;4.50;2.60;;;21.20;98.00;;;;;;5068849;28;20488;-68
2022/08/16 07:57:15;;;;;;;4.30;3.00;;;21.40;98.00;;;;;;5068687;28;20475;-68
2022/08/16 07:59:45;;;;;;;3.57;2.70;;;21.60;98.00;;;;;;5070389;28;20465;-68
2022/08/16 08:02:12;;;;;;;4.10;2.60;;;21.70;98.00;;;;;;5072153;28;20461;-69
2022/08/16 08:04:40;;;;;;;2.73;2.13;;;21.80;98.00;;;;;;5070884;28;20460;-67
2022/08/16 08:07:07;;;;;;;4.13;2.57;;;21.90;98.00;;;;;;5071764;28;20471;-67
2022/08/16 08:09:34;;;;;;;4.30;2.87;;;22.20;98.00;;;;;;5071971;28;20449;-66
2022/08/16 08:12:01;;;;;;;3.60;2.63;;;22.40;98.00;;;;;;5071874;28;20453;-70
2022/08/16 08:14:31;;;;;;;3.10;2.23;;;22.50;98.00;;;;;;5071850;28;20488;-70
2022/08/16 08:17:00;;;;;;;3.77;2.70;;;22.60;98.00;;;;;;5071644;28;20456;-71
2022/08/16 08:19:28;;;;;;;3.80;2.50;;;22.80;98.00;;;;;;5071724;28;20448;-70
2022/08/16 08:21:57;;;;;;;7.13;3.30;;;22.90;98.00;;;;;;5071449;28;20457;-70
2022/08/16 08:24:24;;;;;;;8.40;4.80;;;22.90;98.00;;;;;;5071419;28;20505;-70
2022/08/16 08:26:51;;;;;;;3.93;2.87;;;22.90;98.00;;;;;;5072096;28;20464;-70
2022/08/16 08:29:18;;;;;;;3.57;2.50;;;23.10;98.00;;;;;;5071773;28;20457;-70
2022/08/16 08:31:46;;;;;;;5.83;3.10;;;23.20;98.00;;;;;;5072166;28;20460;-70
2022/08/16 08:34:14;;;;;;;3.47;2.57;;;23.30;98.00;;;;;;5053637;28;20480;-70
2022/08/16 08:36:41;;;;;;;4.13;2.93;;;23.40;98.00;;;;;;5071994;28;20449;-70
2022/08/16 08:39:08;;;;;;;5.17;2.87;;;23.40;98.00;;;;;;5053495;28;20453;-70
2022/08/16 08:41:37;;;;;;;3.90;3.07;;;23.50;98.00;;;;;;5072998;28;20449;-70
2022/08/16 08:44:04;;;;;;;5.37;3.53;;;23.50;98.00;;;;;;5058409;28;20510;-70
2022/08/16 08:46:32;;;;;;;4.80;3.10;;;23.50;98.00;;;;;;5075492;28;20453;-70
2022/08/16 08:48:59;;;;;;;5.33;2.97;;;23.40;98.00;;;;;;5075640;28;20510;-70
2022/08/16 08:51:28;;;;;;;4.43;3.17;;;23.20;98.00;;;;;;5075513;28;20835;-70
2022/08/16 08:53:55;;;;;;;5.30;3.23;;;23.20;98.00;;;;;;5075274;28;20473;-70
2022/08/16 08:56:23;;;;;;;4.50;3.30;;;23.20;98.00;;;;;;5075557;28;20448;-70
2022/08/16 08:58:50;;;;;;;5.17;2.90;;;23.40;98.00;;;;;;5075505;28;20463;-70
2022/08/16 09:01:22;;;;;;;5.00;2.90;;;23.60;98.00;;;;;;5075450;28;20456;-70
2022/08/16 09:03:50;;;;;;;5.50;3.50;;;23.90;98.00;;;;;;5075311;28;20459;-70
2022/08/16 09:06:18;;;;;;;5.30;3.20;;;24.00;98.00;;;;;;5075453;28;20460;-71
2022/08/16 09:08:46;;;;;;;4.83;3.20;;;24.10;98.00;;;;;;5075283;28;20468;-71
2022/08/16 09:11:13;;;;;;;7.47;3.50;;;24.20;98.00;;;;;;5075298;28;20460;-70
2022/08/16 09:13:40;;;;;;;3.90;2.80;;;24.40;98.00;;;;;;5075076;28;20961;-70
2022/08/16 09:16:07;;;;;;;4.73;3.20;;;24.50;97.90;;;;;;5075111;28;20468;-70
2022/08/16 09:18:34;;;;;;;4.03;2.90;;;24.60;98.00;;;;;;5075005;28;20555;-70
2022/08/16 09:21:05;;;;;;;3.93;2.80;;;24.80;97.40;;;;;;5075095;28;20490;-70
2022/08/16 09:23:34;;;;;;;5.47;3.10;;;24.90;98.00;;;;;;5074780;28;20457;-70
2022/08/16 09:26:04;;;;;;;5.07;2.93;;;25.00;96.20;;;;;;5075273;28;20452;-70
2022/08/16 09:28:31;;;;;;;5.00;3.87;;;25.10;96.00;;;;;;5075057;28;20448;-70
2022/08/16 09:30:58;;;;;;;6.33;3.87;;;25.30;95.80;;;;;;5074944;28;20798;-70
2022/08/16 09:33:25;;;;;;;4.03;2.80;;;25.50;95.50;;;;;;5074510;28;20488;-70
2022/08/16 09:35:52;;;;;;;4.97;3.40;;;25.70;94.40;;;;;;5074924;28;20464;-70
2022/08/16 09:38:19;;;;;;;5.57;3.40;;;25.90;94.10;;;;;;5074478;28;20448;-70
2022/08/16 09:40:47;;;;;;;4.80;3.10;;;26.00;93.30;;;;;;5075050;28;20449;-70
2022/08/16 09:43:18;;;;;;;4.90;3.40;;;26.10;90.30;;;;;;5074555;28;20456;-70
2022/08/16 09:45:45;;;;;;;4.90;3.37;;;26.20;91.40;;;;;;5074639;28;20779;-70
2022/08/16 09:48:14;;;;;;;6.83;3.47;;;26.30;90.90;;;;;;5074165;28;20460;-71
2022/08/16 09:50:45;;;;;;;5.83;2.80;;;26.40;91.10;;;;;;5074443;28;20456;-70
2022/08/16 09:53:15;;;;;;;4.90;3.27;;;26.50;90.90;;;;;;5074122;28;20994;-70
2022/08/16 09:55:47;;;;;;;4.10;2.60;;;26.60;89.60;;;;;;5074335;28;20532;-71
2022/08/16 09:58:14;;;;;;;6.80;4.03;;;26.60;89.80;;;;;;5074147;28;20484;-70
2022/08/16 10:00:43;;;;;;;5.43;2.97;;;26.80;89.60;;;;;;5074363;28;20954;-72
2022/08/16 10:03:10;;;;;;;5.70;3.70;;;26.90;88.70;;;;;;5074464;28;20994;-73
2022/08/16 10:05:39;;;;;;;4.70;2.90;;;27.00;87.70;;;;;;5074329;28;20459;-72
2022/08/16 10:08:06;;;;;;;3.77;2.80;;;27.30;88.30;;;;;;5074148;28;20907;-72
2022/08/16 10:10:34;;;;;;;4.57;3.07;;;27.30;88.10;;;;;;5073894;28;20444;-70
2022/08/16 10:15:58;;;;;;;4.97;2.70;;;27.00;86.20;;;;;;5073887;28;20464;-71
2022/08/16 10:18:28;;;;;;;4.73;3.00;;;27.30;88.30;;;;;;5073919;28;20457;-71
2022/08/16 10:20:57;;;;;;;4.17;2.90;;;27.60;87.10;;;;;;5074150;28;20484;-71
2022/08/16 10:23:29;;;;;;;3.60;2.80;;;27.90;85.70;;;;;;5074131;28;20460;-71
2022/08/16 10:25:56;;;;;;;6.03;3.53;;;28.00;86.10;;;;;;5073947;28;20503;-72
2022/08/16 10:28:23;;;;;;;4.30;3.00;;;27.90;84.10;;;;;;5073611;28;20464;-70
2022/08/16 10:30:52;;;;;;;4.33;3.27;;;27.80;84.50;;;;;;5072911;28;20452;-71
2022/08/16 10:33:20;;;;;;;6.60;3.17;;;27.60;83.70;;;;;;5072962;28;20481;-71
2022/08/16 10:35:47;;;;;;;10.03;3.30;;;27.40;85.60;;;;;;5072671;28;20476;-71
2022/08/16 10:38:18;;;;;;;6.00;3.23;;;27.30;86.00;;;;;;5072931;28;20955;-71
2022/08/16 10:40:45;;;;;;;4.00;2.70;;;27.30;84.60;;;;;;5072581;28;20452;-71
2022/08/16 10:43:12;;;;;;;5.37;3.63;;;27.20;84.60;;;;;;5072567;28;20483;-71
2022/08/16 10:45:40;;;;;;;5.60;3.13;;;27.20;85.20;;;;;;5072446;28;20900;-71
2022/08/16 10:48:11;;;;;;;4.60;2.70;;;27.30;85.40;;;;;;5072580;28;20559;-71
2022/08/16 10:50:38;;;;;;;4.20;3.30;;;27.40;85.40;;;;;;5072427;28;20532;-71
2022/08/16 10:53:06;;;;;;;4.53;2.80;;;27.50;86.60;;;;;;5072448;28;20457;-71
2022/08/16 10:55:35;;;;;;;3.67;2.80;;;27.50;85.60;;;;;;5072191;28;20460;-71
2022/08/16 10:58:03;;;;;;;4.07;3.17;;;27.60;85.50;;;;;;5071983;28;20464;-71
2022/08/16 11:00:32;;;;;;;4.03;3.00;;;27.80;85.30;;;;;;5072281;28;20556;-71
2022/08/16 11:03:01;;;;;;;7.70;3.27;;;27.90;85.00;;;;;;5054618;28;20519;-71
2022/08/16 11:05:31;;;;;;;5.60;2.90;;;27.90;85.00;;;;;;5071730;28;20500;-71
2022/08/16 11:07:58;;;;;;;4.93;3.27;;;27.90;83.80;;;;;;5072251;28;20586;-71
2022/08/16 11:10:28;;;;;;;4.20;2.97;;;27.80;85.20;;;;;;5072163;28;20456;-71
2022/08/16 11:12:55;;;;;;;3.77;2.70;;;27.70;83.80;;;;;;5072275;28;20552;-71
2022/08/16 11:15:23;;;;;;;4.27;3.03;;;27.70;85.10;;;;;;5071783;28;20520;-71
2022/08/16 11:17:52;;;;;;;4.37;3.03;;;27.80;84.60;;;;;;5071958;28;20514;-71
2022/08/16 11:20:19;;;;;;;4.00;2.67;;;27.90;85.30;;;;;;5072029;28;20465;-71
2022/08/16 11:22:49;;;;;;;4.17;2.70;;;27.90;84.70;;;;;;5072062;28;20452;-71
2022/08/16 11:25:19;;;;;;;4.93;2.60;;;27.90;84.30;;;;;;5072219;28;20506;-72
2022/08/16 11:27:48;;;;;;;3.10;2.50;;;28.10;83.90;;;;;;5071901;28;20448;-71
2022/08/16 11:30:17;;;;;;;5.43;3.20;;;28.10;82.00;;;;;;5054587;28;20453;-71
2022/08/16 11:32:44;;;;;;;5.30;3.10;;;28.20;82.00;;;;;;5071807;28;20453;-69
2022/08/16 11:37:50;;;;;;;5.33;3.40;;;28.40;82.30;;;;;;5101112;22;20488;-69
2022/08/16 11:40:17;;;;;;;4.37;3.23;;;28.60;83.10;;;;;;5072071;28;20453;-69
2022/08/16 11:42:44;;;;;;;5.27;3.10;;;28.70;82.30;;;;;;5072240;28;20461;-70
2022/08/16 11:45:12;;;;;;;4.30;3.00;;;28.80;79.20;;;;;;5072074;28;20457;-69
2022/08/16 11:47:39;;;;;;;3.73;2.80;;;28.90;79.70;;;;;;5072051;28;20453;-69
2022/08/16 11:50:08;;;;;;;5.57;3.13;;;29.30;78.60;;;;;;5072344;28;20460;-70
2022/08/16 11:52:36;;;;;;;3.40;2.43;;;29.90;79.00;;;;;;5054176;28;20464;-70
2022/08/16 11:55:06;;;;;;;4.47;3.00;;;30.50;78.80;;;;;;5071888;28;20520;-71
2022/08/16 11:57:34;;;;;;;3.70;2.80;;;30.90;77.30;;;;;;5071899;28;20947;-70
2022/08/16 12:00:04;;;;;;;5.27;3.30;;;31.00;75.40;;;;;;5072211;28;20819;-70
2022/08/16 12:02:31;;;;;;;3.50;2.53;;;31.30;76.30;;;;;;5072138;28;20939;-70
2022/08/16 12:04:59;;;;;;;7.03;2.87;;;31.70;75.00;;;;;;5071901;28;20453;-71
2022/08/16 12:07:26;;;;;;;4.60;2.80;;;31.80;72.90;;;;;;5071963;28;20460;-69
2022/08/16 12:09:54;;;;;;;4.07;2.80;;;31.80;73.50;;;;;;5072029;28;20457;-69
2022/08/16 12:12:23;;;;;;;6.03;3.43;;;31.90;72.80;;;;;;5072126;28;20457;-69
2022/08/16 12:14:50;;;;;;;4.33;2.80;;;32.10;72.00;;;;;;5071206;28;20476;-69
2022/08/16 12:17:19;;;;;;;4.10;2.90;;;32.20;71.60;;;;;;5071134;28;20468;-69
2022/08/16 12:19:46;;;;;;;4.03;2.80;;;32.40;72.50;;;;;;5072023;28;20455;-70
2022/08/16 12:22:14;;;;;;;4.63;3.07;;;32.40;70.00;;;;;;5072012;28;20471;-70
2022/08/16 12:24:41;;;;;;;4.40;2.83;;;32.50;70.30;;;;;;5072178;28;20463;-69
2022/08/16 12:27:10;;;;;;;4.70;3.30;;;32.90;69.30;;;;;;5072075;28;20457;-69
2022/08/16 12:29:38;;;;;;;3.30;2.80;;;33.20;68.70;;;;;;5072020;28;20490;-70
2022/08/16 12:32:06;;;;;;;3.60;2.70;;;33.60;68.40;;;;;;5070574;28;20982;-69
2022/08/16 12:34:33;;;;;;;3.50;2.63;;;33.60;68.40;;;;;;5071932;28;20480;-69
2022/08/16 12:37:04;;;;;;;3.43;2.60;;;33.40;67.90;;;;;;5054509;28;20854;-69
2022/08/16 12:39:31;;;;;;;3.30;2.70;;;33.00;68.90;;;;;;5072009;28;20449;-70
2022/08/16 12:41:59;;;;;;;4.20;3.27;;;32.50;69.40;;;;;;5071980;28;20552;-69
2022/08/16 12:44:26;;;;;;;5.13;3.10;;;32.00;70.40;;;;;;5070663;28;20460;-69
2022/08/16 12:49:35;;;;;;;3.43;2.63;;;32.60;68.70;;;;;;5071288;28;20530;-69
2022/08/16 12:52:03;;;;;;;3.03;2.53;;;33.10;69.60;;;;;;5071403;28;20460;-70
2022/08/16 12:54:31;;;;;;;4.50;2.97;;;33.60;67.80;;;;;;5070204;28;20477;-68
2022/08/16 12:57:00;;;;;;;3.73;2.80;;;33.90;67.70;;;;;;5071497;28;20463;-69
2022/08/16 12:59:27;;;;;;;6.07;2.87;;;33.90;64.80;;;;;;5071436;28;20845;-69
2022/08/16 13:01:58;;;;;;;3.43;2.70;;;34.10;64.40;;;;;;5071321;28;20460;-69